sensor_id;sensor_type;location;lat;lon;timestamp;pressure;altitude;pressure_sealevel;temperature;humidity
50710;BME280;37033;49.994;21.992;2023-04-08T00:02:11;99592.19;;;1.70;88.33
50710;BME280;37033;49.994;21.992;2023-04-08T00:04:42;99589.31;;;1.69;88.47
50710;BME280;37033;49.994;21.992;2023-04-08T00:07:12;99590.14;;;1.69;88.57
50710;BME280;37033;49.994;21.992;2023-04-08T00:09:43;99594.52;;;1.67;88.78
50710;BME280;37033;49.994;21.992;2023-04-08T00:12:14;99594.30;;;1.64;88.86
50710;BME280;37033;49.994;21.992;2023-04-08T00:14:44;99595.95;;;1.62;89.06
50710;BME280;37033;49.994;21.992;2023-04-08T00:17:15;99597.77;;;1.62;89.20
50710;BME280;37033;49.994;21.992;2023-04-08T00:19:46;99592.21;;;1.63;89.25
50710;BME280;37033;49.994;21.992;2023-04-08T00:22:16;99593.19;;;1.60;89.29
50710;BME280;37033;49.994;21.992;2023-04-08T00:24:47;99592.23;;;1.59;89.37
50710;BME280;37033;49.994;21.992;2023-04-08T00:27:18;99592.43;;;1.57;89.53
50710;BME280;37033;49.994;21.992;2023-04-08T00:29:48;99592.76;;;1.56;89.72
50710;BME280;37033;49.994;21.992;2023-04-08T00:32:19;99590.31;;;1.56;89.56
50710;BME280;37033;49.994;21.992;2023-04-08T00:34:50;99588.01;;;1.55;89.51
50710;BME280;37033;49.994;21.992;2023-04-08T00:37:20;99587.58;;;1.55;89.45
50710;BME280;37033;49.994;21.992;2023-04-08T00:39:51;99589.48;;;1.55;89.23
50710;BME280;37033;49.994;21.992;2023-04-08T00:42:22;99590.55;;;1.55;89.48
50710;BME280;37033;49.994;21.992;2023-04-08T00:44:53;99593.13;;;1.56;89.26
50710;BME280;37033;49.994;21.992;2023-04-08T00:47:23;99596.74;;;1.56;89.03
50710;BME280;37033;49.994;21.992;2023-04-08T00:49:54;99595.10;;;1.56;89.08
50710;BME280;37033;49.994;21.992;2023-04-08T00:52:25;99595.34;;;1.55;89.10
50710;BME280;37033;49.994;21.992;2023-04-08T00:54:56;99597.54;;;1.55;89.04
50710;BME280;37033;49.994;21.992;2023-04-08T00:57:26;99598.70;;;1.54;89.05
50710;BME280;37033;49.994;21.992;2023-04-08T00:59:57;99598.67;;;1.53;88.81
50710;BME280;37033;49.994;21.992;2023-04-08T01:02:33;99599.98;;;1.50;88.92
50710;BME280;37033;49.994;21.992;2023-04-08T01:05:08;99606.08;;;1.48;88.77
50710;BME280;37033;49.994;21.992;2023-04-08T01:07:46;99607.80;;;1.45;88.59
50710;BME280;37033;49.994;21.992;2023-04-08T01:10:20;99609.95;;;1.43;88.52
50710;BME280;37033;49.994;21.992;2023-04-08T01:12:53;99612.23;;;1.42;88.58
50710;BME280;37033;49.994;21.992;2023-04-08T01:15:25;99618.84;;;1.41;88.59
50710;BME280;37033;49.994;21.992;2023-04-08T01:17:59;99618.78;;;1.38;88.44
50710;BME280;37033;49.994;21.992;2023-04-08T01:20:30;99615.52;;;1.35;88.47
50710;BME280;37033;49.994;21.992;2023-04-08T01:23:09;99619.83;;;1.32;88.55
50710;BME280;37033;49.994;21.992;2023-04-08T01:25:46;99619.13;;;1.29;88.51
50710;BME280;37033;49.994;21.992;2023-04-08T01:28:18;99614.20;;;1.28;88.52
50710;BME280;37033;49.994;21.992;2023-04-08T01:30:50;99616.00;;;1.26;88.63
50710;BME280;37033;49.994;21.992;2023-04-08T01:33:21;99613.95;;;1.24;88.49
50710;BME280;37033;49.994;21.992;2023-04-08T01:35:54;99616.86;;;1.22;88.34
50710;BME280;37033;49.994;21.992;2023-04-08T01:38:26;99613.16;;;1.20;88.57
50710;BME280;37033;49.994;21.992;2023-04-08T01:40:58;99613.42;;;1.16;88.62
50710;BME280;37033;49.994;21.992;2023-04-08T01:43:29;99618.69;;;1.12;88.65
50710;BME280;37033;49.994;21.992;2023-04-08T01:46:02;99623.02;;;1.09;88.50
50710;BME280;37033;49.994;21.992;2023-04-08T01:48:33;99628.23;;;1.05;88.47
50710;BME280;37033;49.994;21.992;2023-04-08T01:51:05;99625.83;;;1.03;88.34
50710;BME280;37033;49.994;21.992;2023-04-08T01:53:36;99626.94;;;0.99;88.17
50710;BME280;37033;49.994;21.992;2023-04-08T01:56:11;99629.13;;;0.95;88.08
50710;BME280;37033;49.994;21.992;2023-04-08T01:58:47;99632.30;;;0.91;87.83
50710;BME280;37033;49.994;21.992;2023-04-08T02:01:23;99633.35;;;0.87;87.98
50710;BME280;37033;49.994;21.992;2023-04-08T02:03:55;99637.41;;;0.82;88.02
50710;BME280;37033;49.994;21.992;2023-04-08T02:06:28;99638.99;;;0.78;88.04
50710;BME280;37033;49.994;21.992;2023-04-08T02:09:01;99639.67;;;0.75;88.20
50710;BME280;37033;49.994;21.992;2023-04-08T02:11:32;99640.71;;;0.73;88.27
50710;BME280;37033;49.994;21.992;2023-04-08T02:14:03;99643.33;;;0.72;88.22
50710;BME280;37033;49.994;21.992;2023-04-08T02:16:37;99641.59;;;0.72;88.24
50710;BME280;37033;49.994;21.992;2023-04-08T02:19:13;99640.63;;;0.71;88.22
50710;BME280;37033;49.994;21.992;2023-04-08T02:21:47;99638.65;;;0.70;88.19
50710;BME280;37033;49.994;21.992;2023-04-08T02:24:20;99641.90;;;0.68;88.04
50710;BME280;37033;49.994;21.992;2023-04-08T02:26:52;99639.89;;;0.66;88.25
50710;BME280;37033;49.994;21.992;2023-04-08T02:29:24;99646.83;;;0.65;88.16
50710;BME280;37033;49.994;21.992;2023-04-08T02:31:56;99646.20;;;0.63;88.09
50710;BME280;37033;49.994;21.992;2023-04-08T02:34:27;99647.54;;;0.58;87.97
50710;BME280;37033;49.994;21.992;2023-04-08T02:36:59;99646.18;;;0.54;87.88
50710;BME280;37033;49.994;21.992;2023-04-08T02:39:33;99645.84;;;0.53;88.06
50710;BME280;37033;49.994;21.992;2023-04-08T02:42:04;99646.37;;;0.53;88.05
50710;BME280;37033;49.994;21.992;2023-04-08T02:44:35;99643.11;;;0.50;88.07
50710;BME280;37033;49.994;21.992;2023-04-08T02:47:05;99643.08;;;0.47;88.10
50710;BME280;37033;49.994;21.992;2023-04-08T02:49:36;99651.64;;;0.46;88.01
50710;BME280;37033;49.994;21.992;2023-04-08T02:52:07;99654.48;;;0.44;88.10
50710;BME280;37033;49.994;21.992;2023-04-08T02:54:37;99663.21;;;0.43;87.91
50710;BME280;37033;49.994;21.992;2023-04-08T02:57:08;99661.15;;;0.40;88.09
50710;BME280;37033;49.994;21.992;2023-04-08T02:59:39;99659.94;;;0.38;88.09
50710;BME280;37033;49.994;21.992;2023-04-08T03:02:09;99655.73;;;0.36;88.12
50710;BME280;37033;49.994;21.992;2023-04-08T03:04:40;99662.17;;;0.36;88.07
50710;BME280;37033;49.994;21.992;2023-04-08T03:07:11;99660.18;;;0.36;88.08
50710;BME280;37033;49.994;21.992;2023-04-08T03:09:41;99663.21;;;0.36;88.11
50710;BME280;37033;49.994;21.992;2023-04-08T03:12:12;99662.71;;;0.36;88.10
50710;BME280;37033;49.994;21.992;2023-04-08T03:14:43;99664.36;;;0.35;88.08
50710;BME280;37033;49.994;21.992;2023-04-08T03:17:14;99661.19;;;0.33;88.17
50710;BME280;37033;49.994;21.992;2023-04-08T03:19:44;99664.47;;;0.33;88.15
50710;BME280;37033;49.994;21.992;2023-04-08T03:22:15;99663.75;;;0.33;88.18
50710;BME280;37033;49.994;21.992;2023-04-08T03:24:46;99665.49;;;0.33;88.20
50710;BME280;37033;49.994;21.992;2023-04-08T03:27:16;99666.63;;;0.34;88.29
50710;BME280;37033;49.994;21.992;2023-04-08T03:29:47;99665.13;;;0.35;88.22
50710;BME280;37033;49.994;21.992;2023-04-08T03:32:18;99659.58;;;0.35;88.18
50710;BME280;37033;49.994;21.992;2023-04-08T03:34:48;99656.80;;;0.36;88.20
50710;BME280;37033;49.994;21.992;2023-04-08T03:37:19;99659.23;;;0.35;88.15
50710;BME280;37033;49.994;21.992;2023-04-08T03:39:50;99660.95;;;0.34;88.10
50710;BME280;37033;49.994;21.992;2023-04-08T03:42:21;99660.31;;;0.32;87.99
50710;BME280;37033;49.994;21.992;2023-04-08T03:44:51;99665.29;;;0.30;88.02
50710;BME280;37033;49.994;21.992;2023-04-08T03:47:22;99667.91;;;0.29;88.02
50710;BME280;37033;49.994;21.992;2023-04-08T03:49:54;99670.92;;;0.28;87.90
50710;BME280;37033;49.994;21.992;2023-04-08T03:52:25;99674.32;;;0.26;88.01
50710;BME280;37033;49.994;21.992;2023-04-08T03:54:56;99672.70;;;0.24;87.90
50710;BME280;37033;49.994;21.992;2023-04-08T03:57:26;99672.48;;;0.23;87.96
50710;BME280;37033;49.994;21.992;2023-04-08T03:59:57;99674.53;;;0.22;87.78
50710;BME280;37033;49.994;21.992;2023-04-08T04:02:27;99680.01;;;0.21;87.91
50710;BME280;37033;49.994;21.992;2023-04-08T04:04:58;99681.20;;;0.20;87.97
50710;BME280;37033;49.994;21.992;2023-04-08T04:07:29;99692.30;;;0.17;87.95
50710;BME280;37033;49.994;21.992;2023-04-08T04:10:00;99694.55;;;0.17;87.95
50710;BME280;37033;49.994;21.992;2023-04-08T04:12:30;99695.64;;;0.16;88.05
50710;BME280;37033;49.994;21.992;2023-04-08T04:15:01;99700.36;;;0.17;88.23
50710;BME280;37033;49.994;21.992;2023-04-08T04:17:32;99699.27;;;0.17;88.18
50710;BME280;37033;49.994;21.992;2023-04-08T04:20:05;99701.48;;;0.20;88.24
50710;BME280;37033;49.994;21.992;2023-04-08T04:22:36;99705.61;;;0.22;88.30
50710;BME280;37033;49.994;21.992;2023-04-08T04:25:08;99710.41;;;0.23;88.30
50710;BME280;37033;49.994;21.992;2023-04-08T04:27:39;99709.02;;;0.25;88.18
50710;BME280;37033;49.994;21.992;2023-04-08T04:30:10;99712.94;;;0.28;88.34
50710;BME280;37033;49.994;21.992;2023-04-08T04:32:43;99715.20;;;0.30;88.42
50710;BME280;37033;49.994;21.992;2023-04-08T04:35:14;99717.38;;;0.33;88.42
50710;BME280;37033;49.994;21.992;2023-04-08T04:37:45;99716.51;;;0.36;88.45
50710;BME280;37033;49.994;21.992;2023-04-08T04:40:16;99720.24;;;0.39;88.38
50710;BME280;37033;49.994;21.992;2023-04-08T04:42:46;99719.11;;;0.42;88.50
50710;BME280;37033;49.994;21.992;2023-04-08T04:45:17;99719.14;;;0.45;88.66
50710;BME280;37033;49.994;21.992;2023-04-08T04:47:48;99717.40;;;0.46;88.44
50710;BME280;37033;49.994;21.992;2023-04-08T04:50:19;99708.60;;;0.48;88.39
50710;BME280;37033;49.994;21.992;2023-04-08T04:52:49;99707.63;;;0.49;88.46
50710;BME280;37033;49.994;21.992;2023-04-08T04:55:20;99713.55;;;0.50;88.52
50710;BME280;37033;49.994;21.992;2023-04-08T04:57:51;99719.38;;;0.52;88.64
50710;BME280;37033;49.994;21.992;2023-04-08T05:00:22;99722.90;;;0.54;88.49
50710;BME280;37033;49.994;21.992;2023-04-08T05:02:53;99720.20;;;0.56;88.54
50710;BME280;37033;49.994;21.992;2023-04-08T05:05:24;99724.02;;;0.59;88.42
50710;BME280;37033;49.994;21.992;2023-04-08T05:07:54;99720.55;;;0.59;88.44
50710;BME280;37033;49.994;21.992;2023-04-08T05:10:25;99722.47;;;0.60;88.50
50710;BME280;37033;49.994;21.992;2023-04-08T05:12:56;99723.08;;;0.61;88.68
50710;BME280;37033;49.994;21.992;2023-04-08T05:15:26;99729.06;;;0.63;88.46
50710;BME280;37033;49.994;21.992;2023-04-08T05:17:57;99734.23;;;0.66;88.76
50710;BME280;37033;49.994;21.992;2023-04-08T05:20:28;99734.20;;;0.70;88.71
50710;BME280;37033;49.994;21.992;2023-04-08T05:22:58;99734.90;;;0.73;88.75
50710;BME280;37033;49.994;21.992;2023-04-08T05:25:29;99737.41;;;0.76;88.73
50710;BME280;37033;49.994;21.992;2023-04-08T05:28:00;99738.34;;;0.79;88.63
50710;BME280;37033;49.994;21.992;2023-04-08T05:30:31;99738.64;;;0.82;88.73
50710;BME280;37033;49.994;21.992;2023-04-08T05:33:02;99744.95;;;0.83;88.75
50710;BME280;37033;49.994;21.992;2023-04-08T05:35:33;99749.67;;;0.84;88.81
50710;BME280;37033;49.994;21.992;2023-04-08T05:38:04;99750.68;;;0.84;88.77
50710;BME280;37033;49.994;21.992;2023-04-08T05:40:35;99753.91;;;0.87;88.87
50710;BME280;37033;49.994;21.992;2023-04-08T05:43:06;99756.72;;;0.87;89.10
50710;BME280;37033;49.994;21.992;2023-04-08T05:45:37;99755.67;;;0.89;88.93
50710;BME280;37033;49.994;21.992;2023-04-08T05:48:07;99757.19;;;0.89;88.99
50710;BME280;37033;49.994;21.992;2023-04-08T05:50:38;99754.59;;;0.90;88.86
50710;BME280;37033;49.994;21.992;2023-04-08T05:53:09;99746.71;;;0.92;88.87
50710;BME280;37033;49.994;21.992;2023-04-08T05:55:40;99752.80;;;0.94;88.93
50710;BME280;37033;49.994;21.992;2023-04-08T05:58:10;99755.17;;;0.96;88.85
50710;BME280;37033;49.994;21.992;2023-04-08T06:00:41;99758.71;;;0.98;88.91
50710;BME280;37033;49.994;21.992;2023-04-08T06:03:12;99763.09;;;1.01;88.93
50710;BME280;37033;49.994;21.992;2023-04-08T06:05:43;99767.88;;;1.05;89.03
50710;BME280;37033;49.994;21.992;2023-04-08T06:08:13;99767.60;;;1.07;88.99
50710;BME280;37033;49.994;21.992;2023-04-08T06:10:50;99773.80;;;1.11;89.06
50710;BME280;37033;49.994;21.992;2023-04-08T06:13:21;99771.52;;;1.13;88.94
50710;BME280;37033;49.994;21.992;2023-04-08T06:15:53;99774.36;;;1.18;89.00
50710;BME280;37033;49.994;21.992;2023-04-08T06:18:24;99776.30;;;1.23;89.07
50710;BME280;37033;49.994;21.992;2023-04-08T06:20:55;99777.02;;;1.28;89.09
50710;BME280;37033;49.994;21.992;2023-04-08T06:23:25;99772.65;;;1.33;89.03
50710;BME280;37033;49.994;21.992;2023-04-08T06:25:56;99774.14;;;1.38;89.05
50710;BME280;37033;49.994;21.992;2023-04-08T06:28:27;99776.67;;;1.43;89.10
50710;BME280;37033;49.994;21.992;2023-04-08T06:30:58;99779.84;;;1.48;89.11
50710;BME280;37033;49.994;21.992;2023-04-08T06:33:29;99776.57;;;1.54;88.98
50710;BME280;37033;49.994;21.992;2023-04-08T06:36:07;99782.88;;;1.60;89.18
50710;BME280;37033;49.994;21.992;2023-04-08T06:38:37;99781.34;;;1.66;88.97
50710;BME280;37033;49.994;21.992;2023-04-08T06:41:08;99779.98;;;1.70;89.00
50710;BME280;37033;49.994;21.992;2023-04-08T06:43:39;99787.63;;;1.75;89.00
50710;BME280;37033;49.994;21.992;2023-04-08T06:46:10;99784.98;;;1.81;89.15
50710;BME280;37033;49.994;21.992;2023-04-08T06:48:40;99792.03;;;1.87;88.98
50710;BME280;37033;49.994;21.992;2023-04-08T06:51:11;99790.91;;;1.90;89.07
50710;BME280;37033;49.994;21.992;2023-04-08T06:53:42;99793.34;;;1.93;88.95
50710;BME280;37033;49.994;21.992;2023-04-08T06:56:12;99794.06;;;1.95;88.94
50710;BME280;37033;49.994;21.992;2023-04-08T06:58:43;99791.73;;;1.99;88.97
50710;BME280;37033;49.994;21.992;2023-04-08T07:01:14;99793.63;;;2.03;88.86
50710;BME280;37033;49.994;21.992;2023-04-08T07:03:44;99797.29;;;2.06;88.89
50710;BME280;37033;49.994;21.992;2023-04-08T07:06:15;99795.80;;;2.10;88.87
50710;BME280;37033;49.994;21.992;2023-04-08T07:08:46;99802.27;;;2.16;89.02
50710;BME280;37033;49.994;21.992;2023-04-08T07:11:16;99804.25;;;2.21;88.89
50710;BME280;37033;49.994;21.992;2023-04-08T07:13:47;99801.45;;;2.23;88.82
50710;BME280;37033;49.994;21.992;2023-04-08T07:16:18;99801.13;;;2.26;88.76
50710;BME280;37033;49.994;21.992;2023-04-08T07:18:49;99803.16;;;2.29;88.63
50710;BME280;37033;49.994;21.992;2023-04-08T07:21:20;99801.61;;;2.31;88.68
50710;BME280;37033;49.994;21.992;2023-04-08T07:23:51;99801.25;;;2.34;88.70
50710;BME280;37033;49.994;21.992;2023-04-08T07:26:22;99801.24;;;2.39;88.82
50710;BME280;37033;49.994;21.992;2023-04-08T07:28:52;99798.60;;;2.43;88.66
50710;BME280;37033;49.994;21.992;2023-04-08T07:31:23;99800.18;;;2.48;88.68
50710;BME280;37033;49.994;21.992;2023-04-08T07:33:54;99803.14;;;2.50;88.48
50710;BME280;37033;49.994;21.992;2023-04-08T07:36:25;99804.34;;;2.52;88.41
50710;BME280;37033;49.994;21.992;2023-04-08T07:38:56;99809.61;;;2.53;88.43
50710;BME280;37033;49.994;21.992;2023-04-08T07:41:27;99821.04;;;2.55;88.52
50710;BME280;37033;49.994;21.992;2023-04-08T07:43:57;99821.11;;;2.55;88.32
50710;BME280;37033;49.994;21.992;2023-04-08T07:46:28;99820.10;;;2.56;88.58
50710;BME280;37033;49.994;21.992;2023-04-08T07:48:59;99825.66;;;2.58;88.62
50710;BME280;37033;49.994;21.992;2023-04-08T07:51:30;99828.25;;;2.64;88.80
50710;BME280;37033;49.994;21.992;2023-04-08T07:54:01;99831.63;;;2.66;88.55
50710;BME280;37033;49.994;21.992;2023-04-08T07:56:32;99827.33;;;2.66;88.70
50710;BME280;37033;49.994;21.992;2023-04-08T07:59:02;99829.16;;;2.67;88.56
50710;BME280;37033;49.994;21.992;2023-04-08T08:01:33;99821.11;;;2.71;88.67
50710;BME280;37033;49.994;21.992;2023-04-08T08:04:04;99822.52;;;2.76;88.83
50710;BME280;37033;49.994;21.992;2023-04-08T08:06:35;99823.48;;;2.82;88.90
50710;BME280;37033;49.994;21.992;2023-04-08T08:09:05;99821.09;;;2.87;88.86
50710;BME280;37033;49.994;21.992;2023-04-08T08:11:36;99820.45;;;2.93;88.92
50710;BME280;37033;49.994;21.992;2023-04-08T08:14:07;99809.63;;;2.99;88.80
50710;BME280;37033;49.994;21.992;2023-04-08T08:16:39;99812.99;;;3.05;88.64
50710;BME280;37033;49.994;21.992;2023-04-08T08:19:10;99821.99;;;3.09;88.84
50710;BME280;37033;49.994;21.992;2023-04-08T08:21:42;99819.40;;;3.13;88.64
50710;BME280;37033;49.994;21.992;2023-04-08T08:24:13;99820.96;;;3.15;88.61
50710;BME280;37033;49.994;21.992;2023-04-08T08:26:43;99824.21;;;3.19;88.72
50710;BME280;37033;49.994;21.992;2023-04-08T08:29:15;99824.46;;;3.25;88.72
50710;BME280;37033;49.994;21.992;2023-04-08T08:31:46;99817.76;;;3.30;88.70
50710;BME280;37033;49.994;21.992;2023-04-08T08:34:16;99815.64;;;3.37;88.65
50710;BME280;37033;49.994;21.992;2023-04-08T08:36:47;99817.61;;;3.45;88.71
50710;BME280;37033;49.994;21.992;2023-04-08T08:39:18;99821.08;;;3.50;88.60
50710;BME280;37033;49.994;21.992;2023-04-08T08:41:48;99824.45;;;3.52;88.37
50710;BME280;37033;49.994;21.992;2023-04-08T08:44:19;99829.00;;;3.52;88.30
50710;BME280;37033;49.994;21.992;2023-04-08T08:46:50;99842.71;;;3.53;88.18
50710;BME280;37033;49.994;21.992;2023-04-08T08:49:20;99838.45;;;3.53;88.21
50710;BME280;37033;49.994;21.992;2023-04-08T08:51:53;99842.02;;;3.58;88.29
50710;BME280;37033;49.994;21.992;2023-04-08T08:54:24;99837.98;;;3.62;88.31
50710;BME280;37033;49.994;21.992;2023-04-08T08:56:55;99837.77;;;3.66;88.29
50710;BME280;37033;49.994;21.992;2023-04-08T08:59:26;99838.11;;;3.71;88.40
50710;BME280;37033;49.994;21.992;2023-04-08T09:01:57;99839.73;;;3.72;88.22
50710;BME280;37033;49.994;21.992;2023-04-08T09:04:27;99843.62;;;3.71;87.90
50710;BME280;37033;49.994;21.992;2023-04-08T09:07:09;99841.90;;;3.72;88.00
50710;BME280;37033;49.994;21.992;2023-04-08T09:09:50;99845.45;;;3.74;88.06
50710;BME280;37033;49.994;21.992;2023-04-08T09:12:21;99847.25;;;3.76;88.06
50710;BME280;37033;49.994;21.992;2023-04-08T09:15:00;99848.19;;;3.78;88.00
50710;BME280;37033;49.994;21.992;2023-04-08T09:17:36;99856.06;;;3.80;88.06
50710;BME280;37033;49.994;21.992;2023-04-08T09:20:10;99854.89;;;3.76;87.91
50710;BME280;37033;49.994;21.992;2023-04-08T09:22:55;99854.67;;;3.74;87.95
50710;BME280;37033;49.994;21.992;2023-04-08T09:25:27;99860.86;;;3.75;87.90
50710;BME280;37033;49.994;21.992;2023-04-08T09:27:58;99858.73;;;3.77;88.06
50710;BME280;37033;49.994;21.992;2023-04-08T09:30:32;99861.05;;;3.79;88.08
50710;BME280;37033;49.994;21.992;2023-04-08T09:33:03;99867.75;;;3.81;88.14
50710;BME280;37033;49.994;21.992;2023-04-08T09:35:35;99869.34;;;3.80;87.93
50710;BME280;37033;49.994;21.992;2023-04-08T09:38:06;99865.39;;;3.84;88.14
50710;BME280;37033;49.994;21.992;2023-04-08T09:40:37;99866.64;;;3.93;88.21
50710;BME280;37033;49.994;21.992;2023-04-08T09:43:13;99864.61;;;3.99;88.35
50710;BME280;37033;49.994;21.992;2023-04-08T09:45:47;99863.16;;;4.05;88.30
50710;BME280;37033;49.994;21.992;2023-04-08T09:48:23;99867.54;;;4.12;88.26
50710;BME280;37033;49.994;21.992;2023-04-08T09:50:58;99863.46;;;4.18;88.10
50710;BME280;37033;49.994;21.992;2023-04-08T09:53:33;99857.95;;;4.21;88.03
50710;BME280;37033;49.994;21.992;2023-04-08T09:56:09;99855.66;;;4.23;87.96
50710;BME280;37033;49.994;21.992;2023-04-08T09:58:44;99854.83;;;4.24;88.07
50710;BME280;37033;49.994;21.992;2023-04-08T10:01:17;99856.83;;;4.26;88.14
50710;BME280;37033;49.994;21.992;2023-04-08T10:03:53;99856.73;;;4.30;88.30
50710;BME280;37033;49.994;21.992;2023-04-08T10:06:28;99854.98;;;4.37;88.25
50710;BME280;37033;49.994;21.992;2023-04-08T10:09:02;99856.83;;;4.41;88.35
50710;BME280;37033;49.994;21.992;2023-04-08T10:11:33;99860.23;;;4.45;88.24
50710;BME280;37033;49.994;21.992;2023-04-08T10:14:04;99859.33;;;4.49;88.48
50710;BME280;37033;49.994;21.992;2023-04-08T10:16:35;99861.52;;;4.52;88.48
50710;BME280;37033;49.994;21.992;2023-04-08T10:19:37;99856.86;;;4.55;88.50
50710;BME280;37033;49.994;21.992;2023-04-08T10:22:46;99863.66;;;4.60;88.40
50710;BME280;37033;49.994;21.992;2023-04-08T10:25:31;99858.13;;;4.65;88.50
50710;BME280;37033;49.994;21.992;2023-04-08T10:30:52;99856.80;;;4.86;88.66
50710;BME280;37033;49.994;21.992;2023-04-08T10:33:30;99853.85;;;4.93;88.64
50710;BME280;37033;49.994;21.992;2023-04-08T10:36:10;99856.48;;;4.97;88.41
50710;BME280;37033;49.994;21.992;2023-04-08T10:38:41;99857.66;;;4.99;88.19
50710;BME280;37033;49.994;21.992;2023-04-08T10:41:12;99861.70;;;5.01;88.13
50710;BME280;37033;49.994;21.992;2023-04-08T10:43:50;99857.70;;;5.03;88.03
50710;BME280;37033;49.994;21.992;2023-04-08T10:46:21;99860.98;;;5.10;88.30
50710;BME280;37033;49.994;21.992;2023-04-08T10:49:01;99860.18;;;5.17;88.10
50710;BME280;37033;49.994;21.992;2023-04-08T10:51:32;99854.93;;;5.24;87.93
50710;BME280;37033;49.994;21.992;2023-04-08T10:54:11;99853.97;;;5.28;87.96
50710;BME280;37033;49.994;21.992;2023-04-08T10:56:46;99855.39;;;5.35;88.00
50710;BME280;37033;49.994;21.992;2023-04-08T10:59:26;99850.58;;;5.45;88.08
50710;BME280;37033;49.994;21.992;2023-04-08T11:01:57;99847.45;;;5.58;88.00
50710;BME280;37033;49.994;21.992;2023-04-08T11:04:29;99845.73;;;5.67;87.52
50710;BME280;37033;49.994;21.992;2023-04-08T11:07:00;99846.98;;;5.74;87.51
50710;BME280;37033;49.994;21.992;2023-04-08T11:09:35;99845.94;;;5.87;87.52
50710;BME280;37033;49.994;21.992;2023-04-08T11:12:09;99849.13;;;5.97;86.91
50710;BME280;37033;49.994;21.992;2023-04-08T11:14:42;99845.79;;;6.03;86.74
50710;BME280;37033;49.994;21.992;2023-04-08T11:17:14;99846.66;;;6.13;86.15
50710;BME280;37033;49.994;21.992;2023-04-08T11:19:46;99846.92;;;6.18;86.13
50710;BME280;37033;49.994;21.992;2023-04-08T11:22:17;99850.00;;;6.28;85.98
50710;BME280;37033;49.994;21.992;2023-04-08T11:24:48;99848.62;;;6.34;85.23
50710;BME280;37033;49.994;21.992;2023-04-08T11:27:19;99844.57;;;6.41;85.19
50710;BME280;37033;49.994;21.992;2023-04-08T11:29:51;99841.02;;;6.50;84.82
50710;BME280;37033;49.994;21.992;2023-04-08T11:32:23;99843.95;;;6.59;84.58
50710;BME280;37033;49.994;21.992;2023-04-08T11:34:54;99846.85;;;6.69;84.61
50710;BME280;37033;49.994;21.992;2023-04-08T11:37:31;99843.73;;;6.79;84.39
50710;BME280;37033;49.994;21.992;2023-04-08T11:40:09;99843.30;;;6.90;84.62
50710;BME280;37033;49.994;21.992;2023-04-08T11:42:40;99841.68;;;6.98;83.26
50710;BME280;37033;49.994;21.992;2023-04-08T11:45:12;99844.22;;;7.02;82.70
50710;BME280;37033;49.994;21.992;2023-04-08T11:47:45;99842.02;;;7.08;82.68
50710;BME280;37033;49.994;21.992;2023-04-08T11:50:24;99838.86;;;7.18;82.62
50710;BME280;37033;49.994;21.992;2023-04-08T11:52:58;99832.86;;;7.27;82.74
50710;BME280;37033;49.994;21.992;2023-04-08T11:55:30;99832.23;;;7.40;82.59
50710;BME280;37033;49.994;21.992;2023-04-08T11:58:04;99830.34;;;7.58;82.75
50710;BME280;37033;49.994;21.992;2023-04-08T12:00:36;99829.84;;;7.76;82.30
50710;BME280;37033;49.994;21.992;2023-04-08T12:03:08;99829.26;;;7.89;81.97
50710;BME280;37033;49.994;21.992;2023-04-08T12:05:39;99828.24;;;7.95;80.95
50710;BME280;37033;49.994;21.992;2023-04-08T12:08:10;99827.52;;;7.98;80.70
50710;BME280;37033;49.994;21.992;2023-04-08T12:10:41;99826.29;;;8.05;81.11
50710;BME280;37033;49.994;21.992;2023-04-08T12:13:12;99822.33;;;8.16;80.90
50710;BME280;37033;49.994;21.992;2023-04-08T12:15:43;99821.73;;;8.24;81.05
50710;BME280;37033;49.994;21.992;2023-04-08T12:18:14;99820.78;;;8.33;79.94
50710;BME280;37033;49.994;21.992;2023-04-08T12:20:44;99816.31;;;8.37;79.21
50710;BME280;37033;49.994;21.992;2023-04-08T12:23:15;99817.81;;;8.36;79.31
50710;BME280;37033;49.994;21.992;2023-04-08T12:25:46;99815.46;;;8.44;78.46
50710;BME280;37033;49.994;21.992;2023-04-08T12:28:16;99810.85;;;8.41;78.22
50710;BME280;37033;49.994;21.992;2023-04-08T12:30:47;99809.86;;;8.43;78.33
50710;BME280;37033;49.994;21.992;2023-04-08T12:33:18;99812.02;;;8.47;78.16
50710;BME280;37033;49.994;21.992;2023-04-08T12:35:48;99808.19;;;8.50;77.57
50710;BME280;37033;49.994;21.992;2023-04-08T12:38:19;99811.34;;;8.55;77.87
50710;BME280;37033;49.994;21.992;2023-04-08T12:40:50;99803.91;;;8.65;78.00
50710;BME280;37033;49.994;21.992;2023-04-08T12:43:20;99804.80;;;8.70;77.66
50710;BME280;37033;49.994;21.992;2023-04-08T12:45:51;99804.07;;;8.74;77.57
50710;BME280;37033;49.994;21.992;2023-04-08T12:48:22;99803.20;;;8.79;76.99
50710;BME280;37033;49.994;21.992;2023-04-08T12:50:53;99809.03;;;8.79;76.00
50710;BME280;37033;49.994;21.992;2023-04-08T12:53:24;99802.17;;;8.77;75.59
50710;BME280;37033;49.994;21.992;2023-04-08T12:55:55;99803.05;;;8.77;75.71
50710;BME280;37033;49.994;21.992;2023-04-08T12:58:26;99802.02;;;8.82;75.27
50710;BME280;37033;49.994;21.992;2023-04-08T13:00:57;99797.24;;;8.84;75.17
50710;BME280;37033;49.994;21.992;2023-04-08T13:03:27;99795.81;;;8.85;75.31
50710;BME280;37033;49.994;21.992;2023-04-08T13:06:00;99796.65;;;8.89;74.94
50710;BME280;37033;49.994;21.992;2023-04-08T13:08:30;99797.83;;;8.95;74.55
50710;BME280;37033;49.994;21.992;2023-04-08T13:11:01;99801.46;;;9.03;74.38
50710;BME280;37033;49.994;21.992;2023-04-08T13:13:32;99801.60;;;9.07;74.07
50710;BME280;37033;49.994;21.992;2023-04-08T13:16:02;99798.66;;;9.12;74.52
50710;BME280;37033;49.994;21.992;2023-04-08T13:18:33;99799.89;;;9.22;74.65
50710;BME280;37033;49.994;21.992;2023-04-08T13:21:05;99795.36;;;9.29;74.18
50710;BME280;37033;49.994;21.992;2023-04-08T13:23:36;99789.80;;;9.39;74.00
50710;BME280;37033;49.994;21.992;2023-04-08T13:26:07;99788.50;;;9.48;73.94
50710;BME280;37033;49.994;21.992;2023-04-08T13:28:37;99781.69;;;9.57;74.18